createdAt,value
2018-09-21T00:02:55.009Z,10.90
2018-09-21T00:06:19.858Z,10.28
2018-09-21T00:09:44.293Z,9.33
2018-09-21T00:13:08.713Z,8.73
2018-09-21T00:16:33.197Z,7.12
2018-09-21T00:19:57.624Z,7.20
2018-09-21T00:23:22.045Z,6.72
2018-09-21T00:26:46.462Z,5.80
2018-09-21T00:30:10.851Z,4.65
2018-09-21T00:33:35.329Z,4.92
2018-09-21T00:36:59.728Z,4.60
2018-09-21T00:40:24.162Z,5.47
2018-09-21T00:43:48.591Z,5.30
2018-09-21T00:47:12.984Z,5.22
2018-09-21T00:50:37.395Z,6.47
2018-09-21T00:54:01.841Z,5.87
2018-09-21T00:57:26.233Z,5.95
2018-09-21T01:00:50.690Z,6.15
2018-09-21T01:04:15.121Z,5.90
2018-09-21T01:07:39.561Z,6.22
2018-09-21T01:11:04.027Z,5.65
2018-09-21T01:14:28.423Z,6.28
2018-09-21T01:17:52.871Z,5.10
2018-09-21T01:21:17.295Z,6.08
2018-09-21T01:24:41.703Z,5.80
2018-09-21T01:28:06.103Z,8.03
2018-09-21T01:31:30.508Z,9.23
2018-09-21T01:34:54.941Z,10.05
2018-09-21T01:38:19.365Z,8.10
2018-09-21T01:41:43.795Z,8.98
2018-09-21T01:45:08.230Z,7.70
2018-09-21T01:48:32.651Z,8.68
2018-09-21T01:51:57.133Z,6.83
2018-09-21T01:55:21.539Z,7.53
2018-09-21T01:58:45.968Z,5.67
2018-09-21T02:02:10.394Z,6.22
2018-09-21T02:05:34.820Z,6.12
2018-09-21T02:08:59.223Z,5.60
2018-09-21T02:12:23.639Z,6.00
2018-09-21T02:15:48.087Z,5.67
2018-09-21T02:19:12.547Z,7.00
2018-09-21T02:22:36.980Z,6.25
2018-09-21T02:26:01.433Z,6.87
2018-09-21T02:29:25.827Z,6.65
2018-09-21T02:32:50.261Z,6.87
2018-09-21T02:36:14.664Z,6.05
2018-09-21T02:39:39.084Z,5.62
2018-09-21T02:43:03.509Z,5.58
2018-09-21T02:46:27.908Z,5.42
2018-09-21T02:49:52.337Z,5.75
2018-09-21T02:53:16.721Z,6.53
2018-09-21T02:56:41.862Z,5.42
2018-09-21T03:00:07.712Z,5.05
2018-09-21T03:03:32.122Z,5.53
2018-09-21T03:06:56.656Z,6.05
2018-09-21T03:10:21.056Z,5.62
2018-09-21T03:13:45.498Z,4.97
2018-09-21T03:17:09.900Z,5.78
2018-09-21T03:20:34.332Z,6.70
2018-09-21T03:23:58.780Z,5.00
2018-09-21T03:27:23.172Z,6.28
2018-09-21T03:30:47.627Z,5.47
2018-09-21T03:34:11.994Z,5.60
2018-09-21T03:37:36.405Z,6.22
2018-09-21T03:41:00.799Z,5.72
2018-09-21T03:44:25.225Z,5.50
2018-09-21T03:47:49.648Z,6.65
2018-09-21T03:51:14.149Z,6.00
2018-09-21T03:54:38.571Z,6.42
2018-09-21T03:58:03.202Z,6.00
2018-09-21T04:01:27.630Z,6.10
2018-09-21T04:04:52.140Z,5.65
2018-09-21T04:08:16.600Z,6.37
2018-09-21T04:11:41.067Z,6.00
2018-09-21T04:15:06.662Z,7.00
2018-09-21T04:18:31.242Z,5.80
2018-09-21T04:21:55.712Z,6.62
2018-09-21T04:25:20.173Z,5.60
2018-09-21T04:28:44.804Z,6.17
2018-09-21T04:32:09.222Z,6.00
2018-09-21T04:35:33.624Z,6.00
2018-09-21T04:38:58.065Z,6.75
2018-09-21T04:42:22.529Z,7.25
2018-09-21T04:45:46.965Z,6.30
2018-09-21T04:49:11.376Z,6.20
2018-09-21T04:52:35.796Z,6.78
2018-09-21T04:56:00.280Z,6.45
2018-09-21T04:59:24.673Z,6.20
2018-09-21T05:02:49.088Z,6.33
2018-09-21T05:06:13.575Z,6.37
2018-09-21T05:09:37.999Z,6.50
2018-09-21T05:13:02.414Z,5.87
2018-09-21T05:16:26.884Z,6.42
2018-09-21T05:19:51.545Z,6.97
2018-09-21T05:23:15.919Z,6.47
2018-09-21T05:26:40.446Z,5.60
2018-09-21T05:30:05.018Z,6.92
2018-09-21T05:33:29.472Z,5.85
2018-09-21T05:36:53.857Z,7.40
2018-09-21T05:40:18.347Z,6.85
2018-09-21T05:43:42.782Z,5.15
2018-09-21T05:47:07.337Z,7.00
2018-09-21T05:50:31.760Z,7.35
2018-09-21T05:53:56.171Z,6.58
2018-09-21T05:57:20.608Z,6.20
2018-09-21T06:00:45.046Z,6.42
2018-09-21T06:04:09.461Z,5.83
2018-09-21T06:07:35.045Z,6.33
2018-09-21T06:10:59.446Z,6.25
2018-09-21T06:14:26.757Z,5.42
2018-09-21T06:17:51.221Z,4.87
2018-09-21T06:21:15.721Z,4.85
2018-09-21T06:24:40.071Z,5.78
2018-09-21T06:28:04.504Z,5.45
2018-09-21T06:31:28.909Z,5.37
2018-09-21T06:34:53.411Z,4.40
2018-09-21T06:38:17.877Z,4.60
2018-09-21T06:41:42.295Z,3.77
2018-09-21T06:45:06.823Z,4.25
2018-09-21T06:48:31.327Z,4.45
2018-09-21T06:51:55.854Z,4.28
2018-09-21T06:55:20.330Z,3.47
2018-09-21T06:58:44.966Z,3.77
2018-09-21T07:02:09.381Z,3.70
2018-09-21T07:05:33.809Z,3.00
2018-09-21T07:08:58.248Z,3.80
2018-09-21T07:12:22.703Z,3.92
2018-09-21T07:15:47.180Z,4.87
2018-09-21T07:19:11.679Z,3.27
2018-09-21T07:22:36.408Z,3.17
2018-09-21T07:26:00.818Z,4.22
2018-09-21T07:29:25.246Z,3.75
2018-09-21T07:32:49.656Z,3.08
2018-09-21T07:36:14.079Z,3.55
2018-09-21T07:39:38.500Z,3.70
2018-09-21T07:43:02.952Z,3.60
2018-09-21T07:46:27.405Z,3.35
2018-09-21T07:49:51.840Z,4.47
2018-09-21T07:53:16.282Z,3.72
2018-09-21T07:56:40.687Z,3.85
2018-09-21T08:00:05.517Z,4.22
2018-09-21T08:03:29.950Z,3.10
2018-09-21T08:06:54.356Z,3.60
2018-09-21T08:10:18.778Z,4.40
2018-09-21T08:13:43.192Z,3.15
2018-09-21T08:17:08.049Z,3.27
2018-09-21T08:20:32.452Z,3.47
2018-09-21T08:23:56.856Z,3.33
2018-09-21T08:27:21.272Z,4.22
2018-09-21T08:30:45.677Z,6.30
2018-09-21T08:34:10.184Z,4.70
2018-09-21T08:37:34.633Z,3.05
2018-09-21T08:40:59.057Z,3.25
2018-09-21T08:44:23.470Z,3.30
2018-09-21T08:47:47.900Z,2.33
2018-09-21T08:51:12.344Z,2.65
2018-09-21T08:54:36.752Z,2.50
2018-09-21T08:58:01.176Z,2.73
2018-09-21T09:01:25.661Z,1.90
2018-09-21T09:04:50.107Z,2.10
2018-09-21T09:08:14.524Z,2.20
2018-09-21T09:11:39.261Z,2.67
2018-09-21T09:15:03.746Z,2.50
2018-09-21T09:18:28.125Z,2.80
2018-09-21T09:21:52.524Z,2.10
2018-09-21T09:25:16.973Z,2.77
2018-09-21T09:28:41.412Z,3.40
2018-09-21T09:32:05.868Z,4.60
2018-09-21T09:35:30.274Z,4.50
2018-09-21T09:38:54.696Z,2.45
2018-09-21T09:42:19.080Z,3.33
2018-09-21T09:45:43.491Z,2.90
2018-09-21T09:49:08.035Z,3.37
2018-09-21T09:52:32.439Z,3.58
2018-09-21T09:55:56.837Z,2.98
2018-09-21T09:59:21.252Z,3.67
2018-09-21T10:02:45.643Z,3.17
2018-09-21T10:06:10.136Z,3.80
2018-09-21T10:09:34.588Z,3.90
2018-09-21T10:12:59.013Z,5.08
2018-09-21T10:16:23.464Z,4.58
2018-09-21T10:19:47.831Z,4.60
2018-09-21T10:23:12.286Z,3.58
2018-09-21T10:26:36.748Z,4.20
2018-09-21T10:30:01.185Z,4.58
2018-09-21T10:33:25.663Z,4.37
2018-09-21T10:36:50.059Z,3.40
2018-09-21T10:40:14.535Z,4.15
2018-09-21T10:43:38.896Z,4.50
2018-09-21T10:47:03.344Z,3.85
2018-09-21T10:50:27.797Z,3.47
2018-09-21T10:53:52.225Z,3.98
2018-09-21T10:57:16.598Z,5.17
2018-09-21T11:00:41.166Z,3.52
2018-09-21T11:04:05.603Z,4.42
2018-09-21T11:07:30.053Z,4.40
2018-09-21T11:10:54.471Z,4.95
2018-09-21T11:14:18.940Z,4.17
2018-09-21T11:17:43.362Z,3.80
2018-09-21T11:21:07.792Z,3.67
2018-09-21T11:24:32.253Z,4.03
2018-09-21T11:27:56.683Z,3.98
2018-09-21T11:31:21.171Z,3.30
2018-09-21T11:34:45.906Z,3.25
2018-09-21T11:38:10.366Z,3.95
2018-09-21T11:41:34.778Z,2.67
2018-09-21T11:44:59.170Z,3.58
2018-09-21T11:48:23.634Z,3.17
2018-09-21T11:51:48.078Z,3.17
2018-09-21T11:55:12.538Z,3.95
2018-09-21T11:58:36.943Z,3.27
2018-09-21T12:02:01.400Z,3.77
2018-09-21T12:05:25.938Z,2.83
2018-09-21T12:08:50.727Z,2.75
2018-09-21T12:12:15.239Z,3.17
2018-09-21T12:15:39.690Z,2.72
2018-09-21T12:19:04.169Z,3.15
2018-09-21T12:22:28.571Z,2.20
2018-09-21T12:25:52.988Z,2.62
2018-09-21T12:29:17.408Z,2.15
2018-09-21T12:32:42.069Z,1.92
2018-09-21T12:36:06.915Z,1.50
2018-09-21T12:39:31.291Z,1.55
2018-09-21T12:42:55.692Z,1.55
2018-09-21T12:46:27.535Z,0.93
2018-09-21T12:49:51.971Z,1.25
2018-09-21T12:53:16.417Z,1.50
2018-09-21T12:56:40.888Z,1.05
2018-09-21T13:00:06.452Z,1.30
2018-09-21T13:03:30.916Z,0.82
2018-09-21T13:06:55.302Z,0.98
2018-09-21T13:10:19.736Z,1.50
2018-09-21T13:13:44.124Z,1.40
2018-09-21T13:17:08.544Z,0.98
2018-09-21T13:20:32.980Z,0.90
2018-09-21T13:23:57.354Z,1.20
2018-09-21T13:27:21.788Z,1.22
2018-09-21T13:30:46.209Z,1.07
2018-09-21T13:34:10.715Z,1.00
2018-09-21T13:37:35.158Z,1.57
2018-09-21T13:40:59.593Z,1.20
2018-09-21T13:44:24.016Z,0.88
2018-09-21T13:47:48.460Z,1.00
2018-09-21T13:51:12.907Z,0.88
2018-09-21T13:54:37.294Z,1.10
2018-09-21T13:58:01.701Z,0.93
2018-09-21T14:01:26.486Z,1.12
2018-09-21T14:04:50.878Z,0.90
2018-09-21T14:08:15.729Z,0.72
2018-09-21T14:11:40.556Z,0.98
2018-09-21T14:15:05.124Z,1.15
2018-09-21T14:18:29.551Z,1.15
2018-09-21T14:21:54.632Z,1.20
2018-09-21T14:25:19.100Z,1.10
2018-09-21T14:28:43.565Z,1.47
2018-09-21T14:32:08.598Z,1.15
2018-09-21T14:35:33.015Z,1.40
2018-09-21T14:38:57.484Z,1.57
2018-09-21T14:42:21.983Z,1.47
2018-09-21T14:45:46.393Z,1.45
2018-09-21T14:49:10.852Z,1.80
2018-09-21T14:52:35.366Z,1.27
2018-09-21T14:55:59.799Z,1.52
2018-09-21T14:59:24.265Z,1.12
2018-09-21T15:02:48.719Z,1.40
2018-09-21T15:06:13.248Z,2.10
2018-09-21T15:09:37.741Z,1.50
2018-09-21T15:13:02.224Z,1.37
2018-09-21T15:16:26.622Z,1.35
2018-09-21T15:19:51.028Z,1.60
2018-09-21T15:23:24.001Z,1.20
2018-09-21T15:27:01.269Z,2.12
2018-09-21T15:30:27.233Z,1.40
2018-09-21T15:33:51.685Z,1.10
2018-09-21T15:37:16.500Z,1.60
2018-09-21T15:40:42.161Z,1.02
2018-09-21T15:44:06.828Z,1.05
2018-09-21T15:47:32.636Z,1.10
2018-09-21T15:50:57.138Z,1.27
2018-09-21T15:54:21.588Z,0.82
2018-09-21T15:57:46.018Z,1.05
2018-09-21T16:01:11.435Z,1.20
2018-09-21T16:04:35.891Z,1.42
2018-09-21T16:08:01.083Z,1.20
2018-09-21T16:11:25.811Z,1.35
2018-09-21T16:14:51.066Z,0.80
2018-09-21T16:18:15.527Z,1.47
2018-09-21T16:21:40.029Z,1.37
2018-09-21T16:25:04.779Z,1.32
2018-09-21T16:28:29.855Z,0.90
2018-09-21T16:31:54.760Z,1.57
2018-09-21T16:35:19.199Z,1.30
2018-09-21T16:38:43.706Z,1.20
2018-09-21T16:42:08.098Z,1.45
2018-09-21T16:45:32.565Z,1.17
2018-09-21T16:48:57.054Z,1.15
2018-09-21T16:52:26.631Z,1.52
2018-09-21T16:55:52.902Z,1.57
2018-09-21T16:59:18.028Z,1.07
2018-09-21T17:02:42.823Z,1.30
2018-09-21T17:06:07.292Z,1.12
2018-09-21T17:09:31.760Z,1.52
2018-09-21T17:12:56.219Z,1.57
2018-09-21T17:16:20.761Z,1.65
2018-09-21T17:19:45.318Z,1.55
2018-09-21T17:23:09.874Z,1.32
2018-09-21T17:26:34.411Z,1.57
2018-09-21T17:29:58.933Z,1.42
2018-09-21T17:33:23.478Z,1.05
2018-09-21T17:36:48.045Z,1.52
2018-09-21T17:40:15.485Z,1.40
2018-09-21T17:43:40.053Z,1.27
2018-09-21T17:47:04.617Z,2.00
2018-09-21T17:50:28.971Z,1.22
2018-09-21T17:53:53.528Z,2.40
2018-09-21T17:57:18.113Z,1.42
2018-09-21T18:00:42.633Z,1.90
2018-09-21T18:04:07.109Z,1.50
2018-09-21T18:07:31.670Z,1.72
2018-09-21T18:10:56.375Z,1.87
2018-09-21T18:14:20.897Z,1.32
2018-09-21T18:17:45.549Z,1.80
2018-09-21T18:21:10.759Z,1.35
2018-09-21T18:24:35.366Z,1.70
2018-09-21T18:27:59.862Z,1.50
2018-09-21T18:31:24.521Z,2.85
2018-09-21T18:34:48.933Z,1.50
2018-09-21T18:38:13.380Z,1.85
2018-09-21T18:41:37.882Z,1.45
2018-09-21T18:45:02.440Z,1.20
2018-09-21T18:48:27.000Z,1.52
2018-09-21T18:51:51.550Z,1.15
2018-09-21T18:55:16.104Z,1.90
2018-09-21T18:58:40.803Z,1.92
2018-09-21T19:02:05.373Z,2.02
2018-09-21T19:05:29.868Z,1.62
2018-09-21T19:08:54.372Z,2.42
2018-09-21T19:12:18.950Z,1.70
2018-09-21T19:15:43.430Z,2.02
2018-09-21T19:19:08.018Z,1.40
2018-09-21T19:22:32.416Z,1.70
2018-09-21T19:25:56.832Z,1.55
2018-09-21T19:29:21.325Z,2.05
2018-09-21T19:32:45.822Z,2.08
2018-09-21T19:36:10.293Z,1.72
2018-09-21T19:39:34.767Z,2.25
2018-09-21T19:42:59.479Z,2.27
2018-09-21T19:46:23.857Z,2.10
2018-09-21T19:49:50.011Z,1.95
2018-09-21T19:53:14.460Z,2.55
2018-09-21T19:56:38.994Z,2.47
2018-09-21T20:00:03.624Z,2.67
2018-09-21T20:03:28.130Z,2.50
2018-09-21T20:06:52.647Z,2.52
2018-09-21T20:10:17.141Z,2.37
2018-09-21T20:13:42.175Z,3.20
2018-09-21T20:17:07.019Z,2.02
2018-09-21T20:20:31.706Z,2.27
2018-09-21T20:23:56.165Z,2.87
2018-09-21T20:27:20.695Z,2.37
2018-09-21T20:30:50.244Z,2.55
2018-09-21T20:34:14.773Z,2.08
2018-09-21T20:37:39.475Z,2.40
2018-09-21T20:41:03.920Z,2.10
2018-09-21T20:44:28.434Z,2.37
2018-09-21T20:47:53.025Z,3.25
2018-09-21T20:51:17.612Z,2.40
2018-09-21T20:54:42.258Z,2.42
2018-09-21T20:58:06.812Z,2.30
2018-09-21T21:01:31.317Z,2.35
2018-09-21T21:04:55.893Z,3.05
2018-09-21T21:08:20.430Z,3.25
2018-09-21T21:11:45.096Z,2.85
2018-09-21T21:15:09.626Z,2.90
2018-09-21T21:18:34.099Z,2.45
2018-09-21T21:21:58.525Z,2.87
2018-09-21T21:25:22.971Z,2.95
2018-09-21T21:28:47.486Z,2.55
2018-09-21T21:32:12.013Z,2.97
2018-09-21T21:35:36.678Z,2.80
2018-09-21T21:39:01.209Z,2.70
2018-09-21T21:42:25.808Z,2.47
2018-09-21T21:45:50.326Z,3.03
2018-09-21T21:49:14.900Z,2.90
2018-09-21T21:52:39.309Z,3.10
2018-09-21T21:56:03.892Z,3.95
2018-09-21T21:59:28.319Z,3.22
2018-09-21T22:02:52.716Z,3.62
2018-09-21T22:06:17.131Z,3.77
2018-09-21T22:09:41.630Z,3.27
2018-09-21T22:13:11.274Z,3.65
2018-09-21T22:16:35.986Z,3.50
2018-09-21T22:20:00.434Z,3.63
2018-09-21T22:23:24.832Z,2.40
2018-09-21T22:26:49.277Z,2.30
2018-09-21T22:30:13.781Z,2.97
2018-09-21T22:33:38.278Z,3.37
2018-09-21T22:37:02.762Z,2.20
2018-09-21T22:40:27.197Z,3.33
2018-09-21T22:43:54.173Z,3.23
2018-09-21T22:47:18.626Z,4.00
2018-09-21T22:50:43.024Z,3.90
2018-09-21T22:54:07.513Z,3.57
2018-09-21T22:57:32.012Z,3.93
2018-09-21T23:00:56.557Z,3.23
2018-09-21T23:04:22.106Z,3.00
2018-09-21T23:07:46.538Z,3.25
2018-09-21T23:11:10.993Z,2.73
2018-09-21T23:14:35.409Z,3.77
2018-09-21T23:18:00.013Z,3.23
2018-09-21T23:21:24.455Z,2.63
2018-09-21T23:24:48.935Z,3.80
2018-09-21T23:28:13.407Z,4.37
2018-09-21T23:31:37.847Z,2.77
2018-09-21T23:35:02.259Z,3.47
2018-09-21T23:38:26.816Z,3.53
2018-09-21T23:41:51.198Z,3.83
2018-09-21T23:45:15.706Z,3.23
2018-09-21T23:48:40.314Z,3.97
2018-09-21T23:52:05.177Z,4.47
2018-09-21T23:55:29.603Z,3.73
2018-09-21T23:58:54.125Z,3.47
